createdAt,value
2022-09-20T00:00:25.268Z,926.27
2022-09-20T00:01:25.322Z,926.25
2022-09-20T00:02:25.276Z,926.27
2022-09-20T00:03:25.255Z,926.28
2022-09-20T00:04:25.698Z,926.29
2022-09-20T00:05:25.442Z,926.34
2022-09-20T00:06:25.192Z,926.33
2022-09-20T00:07:25.208Z,926.35
2022-09-20T00:08:25.219Z,926.34
2022-09-20T00:09:25.728Z,926.38
2022-09-20T00:10:25.222Z,926.31
2022-09-20T00:11:25.330Z,926.26
2022-09-20T00:12:25.343Z,926.18
2022-09-20T00:13:25.142Z,926.14
2022-09-20T00:14:25.248Z,926.10
2022-09-20T00:15:25.161Z,926.06
2022-09-20T00:16:25.207Z,926.03
2022-09-20T00:17:25.102Z,926.09
2022-09-20T00:18:25.008Z,926.08
2022-09-20T00:19:25.385Z,926.10
2022-09-20T00:20:25.179Z,926.12
2022-09-20T00:21:24.992Z,926.11
2022-09-20T00:22:26.020Z,926.09
2022-09-20T00:23:24.997Z,926.07
2022-09-20T00:24:24.998Z,926.04
2022-09-20T00:25:25.012Z,926.03
2022-09-20T00:26:25.126Z,926.05
2022-09-20T00:27:25.026Z,926.04
2022-09-20T00:28:25.038Z,926.03
2022-09-20T00:29:26.062Z,926.03
2022-09-20T00:30:24.947Z,926.02
2022-09-20T00:31:25.016Z,926.03
2022-09-20T00:32:24.958Z,925.99
2022-09-20T00:33:24.965Z,925.99
2022-09-20T00:34:25.588Z,925.98
2022-09-20T00:35:24.880Z,925.97
2022-09-20T00:36:24.837Z,925.97
2022-09-20T00:37:24.991Z,925.96
2022-09-20T00:38:24.898Z,925.94
2022-09-20T00:39:25.931Z,925.93
2022-09-20T00:40:25.468Z,925.91
2022-09-20T00:41:24.825Z,925.90
2022-09-20T00:42:24.934Z,925.91
2022-09-20T00:43:24.831Z,925.91
2022-09-20T00:44:24.845Z,925.90
2022-09-20T00:45:24.831Z,925.91
2022-09-20T00:46:24.929Z,925.89
2022-09-20T00:47:24.768Z,925.89
2022-09-20T00:48:24.964Z,925.90
2022-09-20T00:49:25.276Z,925.92
2022-09-20T00:50:24.791Z,925.94
2022-09-20T00:51:24.784Z,925.97
2022-09-20T00:52:24.699Z,925.97
2022-09-20T00:53:24.696Z,925.97
2022-09-20T00:54:24.697Z,925.95
2022-09-20T00:55:24.712Z,925.94
2022-09-20T00:56:24.708Z,925.93
2022-09-20T00:57:24.612Z,925.95
2022-09-20T00:58:24.629Z,925.95
2022-09-20T00:59:24.629Z,925.97
2022-09-20T01:00:24.641Z,925.97
2022-09-20T01:01:24.738Z,925.97
2022-09-20T01:02:27.419Z,925.98
2022-09-20T01:03:24.566Z,925.97
2022-09-20T01:04:24.580Z,925.95
2022-09-20T01:05:24.987Z,925.91
2022-09-20T01:06:24.594Z,925.87
2022-09-20T01:07:24.606Z,925.79
2022-09-20T01:08:25.896Z,925.75
2022-09-20T01:09:24.479Z,925.72
2022-09-20T01:10:24.506Z,925.72
2022-09-20T01:11:24.523Z,925.74
2022-09-20T01:12:24.537Z,925.74
2022-09-20T01:13:24.530Z,925.73
2022-09-20T01:14:24.551Z,925.72
2022-09-20T01:15:24.388Z,925.71
2022-09-20T01:16:24.466Z,925.70
2022-09-20T01:17:25.799Z,925.69
2022-09-20T01:18:24.475Z,925.69
2022-09-20T01:19:24.482Z,925.71
2022-09-20T01:20:24.486Z,925.73
2022-09-20T01:21:25.014Z,925.71
2022-09-20T01:22:24.600Z,925.71
2022-09-20T01:23:25.017Z,925.71
2022-09-20T01:24:24.510Z,925.70
2022-09-20T01:25:24.475Z,925.72
2022-09-20T01:26:24.529Z,925.74
2022-09-20T01:27:24.313Z,925.74
2022-09-20T01:28:24.312Z,925.71
2022-09-20T01:29:25.353Z,925.66
2022-09-20T01:30:24.321Z,925.61
2022-09-20T01:31:24.431Z,925.59
2022-09-20T01:32:24.241Z,925.59
2022-09-20T01:33:24.255Z,925.59
2022-09-20T01:34:24.260Z,925.60
2022-09-20T01:35:24.487Z,925.60
2022-09-20T01:36:24.284Z,925.58
2022-09-20T01:37:24.269Z,925.56
2022-09-20T01:38:24.150Z,925.55
2022-09-20T01:39:24.187Z,925.56
2022-09-20T01:40:24.322Z,925.57
2022-09-20T01:41:24.189Z,925.56
2022-09-20T01:42:24.217Z,925.54
2022-09-20T01:43:24.200Z,925.52
2022-09-20T01:44:24.123Z,925.52
2022-09-20T01:45:24.138Z,925.54
2022-09-20T01:46:24.202Z,925.56
2022-09-20T01:47:25.077Z,925.59
2022-09-20T01:48:24.553Z,925.60
2022-09-20T01:49:24.157Z,925.59
2022-09-20T01:50:24.062Z,925.56
2022-09-20T01:51:24.063Z,925.51
2022-09-20T01:52:24.033Z,925.48
2022-09-20T01:53:24.156Z,925.45
2022-09-20T01:54:24.774Z,925.42
2022-09-20T01:55:24.091Z,925.38
2022-09-20T01:56:23.990Z,925.32
2022-09-20T01:57:27.384Z,925.27
2022-09-20T01:58:24.005Z,925.25
2022-09-20T01:59:27.600Z,925.26
2022-09-20T02:00:24.021Z,925.30
2022-09-20T02:01:24.923Z,925.34
2022-09-20T02:02:24.921Z,925.37
2022-09-20T02:03:23.878Z,925.38
2022-09-20T02:04:23.931Z,925.36
2022-09-20T02:05:24.359Z,925.35
2022-09-20T02:06:23.883Z,925.35
2022-09-20T02:07:23.957Z,925.36
2022-09-20T02:08:23.803Z,925.36
2022-09-20T02:09:23.806Z,925.39
2022-09-20T02:10:23.815Z,925.43
2022-09-20T02:11:24.276Z,925.45
2022-09-20T02:12:23.926Z,925.45
2022-09-20T02:13:23.888Z,925.42
2022-09-20T02:14:23.809Z,925.39
2022-09-20T02:15:23.745Z,925.34
2022-09-20T02:16:23.809Z,925.31
2022-09-20T02:17:23.827Z,925.28
2022-09-20T02:18:23.714Z,925.26
2022-09-20T02:19:23.777Z,925.24
2022-09-20T02:20:23.745Z,925.19
2022-09-20T02:21:23.741Z,925.16
2022-09-20T02:22:23.689Z,925.13
2022-09-20T02:23:23.692Z,925.11
2022-09-20T02:24:23.657Z,925.10
2022-09-20T02:25:23.782Z,925.10
2022-09-20T02:26:23.610Z,925.10
2022-09-20T02:27:23.625Z,925.11
2022-09-20T02:28:23.721Z,925.11
2022-09-20T02:29:23.628Z,925.09
2022-09-20T02:30:23.707Z,925.07
2022-09-20T02:31:23.680Z,925.01
2022-09-20T02:32:23.557Z,924.97
2022-09-20T02:33:23.613Z,924.94
2022-09-20T02:34:23.638Z,924.94
2022-09-20T02:35:23.663Z,924.94
2022-09-20T02:36:23.572Z,924.91
2022-09-20T02:37:23.589Z,924.86
2022-09-20T02:38:23.484Z,924.78
2022-09-20T02:39:23.558Z,924.72
2022-09-20T02:40:23.684Z,924.66
2022-09-20T02:41:24.522Z,924.60
2022-09-20T02:42:23.480Z,924.58
2022-09-20T02:43:23.634Z,924.58
2022-09-20T02:44:23.420Z,924.61
2022-09-20T02:45:23.630Z,924.63
2022-09-20T02:46:23.437Z,924.65
2022-09-20T02:47:23.438Z,924.69
2022-09-20T02:48:23.442Z,924.73
2022-09-20T02:49:23.454Z,924.76
2022-09-20T02:50:23.426Z,924.77
2022-09-20T02:51:23.879Z,924.75
2022-09-20T02:52:23.476Z,924.72
2022-09-20T02:53:23.349Z,924.69
2022-09-20T02:54:23.390Z,924.64
2022-09-20T02:55:23.395Z,924.58
2022-09-20T02:56:23.395Z,924.55
2022-09-20T02:57:23.824Z,924.53
2022-09-20T02:58:23.408Z,924.51
2022-09-20T02:59:23.305Z,924.54
2022-09-20T03:00:23.314Z,924.53
2022-09-20T03:01:23.381Z,924.51
2022-09-20T03:02:23.396Z,924.48
2022-09-20T03:03:23.339Z,924.45
2022-09-20T03:04:23.253Z,924.44
2022-09-20T03:05:23.253Z,924.43
2022-09-20T03:06:23.259Z,924.40
2022-09-20T03:07:23.262Z,924.39
2022-09-20T03:08:23.279Z,924.37
2022-09-20T03:09:23.279Z,924.36
2022-09-20T03:10:23.182Z,924.35
2022-09-20T03:11:23.194Z,924.35
2022-09-20T03:12:23.206Z,924.34
2022-09-20T03:13:23.208Z,924.32
2022-09-20T03:14:23.266Z,924.32
2022-09-20T03:15:23.212Z,924.29
2022-09-20T03:16:23.302Z,924.26
2022-09-20T03:17:23.235Z,924.23
2022-09-20T03:18:23.239Z,924.19
2022-09-20T03:19:23.143Z,924.15
2022-09-20T03:20:23.148Z,924.14
2022-09-20T03:21:23.153Z,924.11
2022-09-20T03:22:23.057Z,924.12
2022-09-20T03:23:23.168Z,924.12
2022-09-20T03:24:23.077Z,924.11
2022-09-20T03:25:23.076Z,924.10
2022-09-20T03:26:23.189Z,924.05
2022-09-20T03:27:23.092Z,924.04
2022-09-20T03:28:23.098Z,924.03
2022-09-20T03:29:23.002Z,924.01
2022-09-20T03:30:23.006Z,923.99
2022-09-20T03:31:23.132Z,924.01
2022-09-20T03:32:23.841Z,924.04
2022-09-20T03:33:23.044Z,924.07
2022-09-20T03:34:22.941Z,924.10
2022-09-20T03:35:23.044Z,924.11
2022-09-20T03:36:22.948Z,924.10
2022-09-20T03:37:22.952Z,924.08
2022-09-20T03:38:22.958Z,924.06
2022-09-20T03:39:22.866Z,924.04
2022-09-20T03:40:22.943Z,924.00
2022-09-20T03:41:23.490Z,923.97
2022-09-20T03:42:22.884Z,923.92
2022-09-20T03:43:22.931Z,923.89
2022-09-20T03:44:23.449Z,923.84
2022-09-20T03:45:22.911Z,923.82
2022-09-20T03:46:22.842Z,923.80
2022-09-20T03:47:22.823Z,923.81
2022-09-20T03:48:22.828Z,923.78
2022-09-20T03:49:22.839Z,923.75
2022-09-20T03:50:22.927Z,923.71
2022-09-20T03:51:22.748Z,923.70
2022-09-20T03:52:22.854Z,923.68
2022-09-20T03:53:22.764Z,923.65
2022-09-20T03:54:22.866Z,923.62
2022-09-20T03:55:22.877Z,923.60
2022-09-20T03:56:22.785Z,923.53
2022-09-20T03:57:22.783Z,923.45
2022-09-20T03:58:22.623Z,923.37
2022-09-20T03:59:22.630Z,923.30
2022-09-20T04:00:22.706Z,923.23
2022-09-20T04:01:22.677Z,923.19
2022-09-20T04:02:22.743Z,923.15
2022-09-20T04:03:22.623Z,923.15
2022-09-20T04:04:22.860Z,923.19
2022-09-20T04:05:22.872Z,923.23
2022-09-20T04:06:23.397Z,923.25
2022-09-20T04:07:22.581Z,923.28
2022-09-20T04:08:22.574Z,923.27
2022-09-20T04:09:22.565Z,923.28
2022-09-20T04:10:23.113Z,923.27
2022-09-20T04:11:22.617Z,923.28
2022-09-20T04:12:22.609Z,923.24
2022-09-20T04:13:22.517Z,923.18
2022-09-20T04:14:22.503Z,923.18
2022-09-20T04:15:22.458Z,923.20
2022-09-20T04:16:22.713Z,923.23
2022-09-20T04:17:22.648Z,923.28
2022-09-20T04:18:22.516Z,923.29
2022-09-20T04:19:22.550Z,923.31
2022-09-20T04:20:22.467Z,923.28
2022-09-20T04:21:22.466Z,923.31
2022-09-20T04:22:22.580Z,923.34
2022-09-20T04:23:22.987Z,923.36
2022-09-20T04:24:23.403Z,923.37
2022-09-20T04:25:22.365Z,923.37
2022-09-20T04:26:22.364Z,923.39
2022-09-20T04:27:22.478Z,923.42
2022-09-20T04:28:22.375Z,923.44
2022-09-20T04:29:22.871Z,923.43
2022-09-20T04:30:22.396Z,923.40
2022-09-20T04:31:22.597Z,923.40
2022-09-20T04:32:22.633Z,923.40
2022-09-20T04:33:22.335Z,923.45
2022-09-20T04:34:23.363Z,923.48
2022-09-20T04:35:22.470Z,923.51
2022-09-20T04:36:22.361Z,923.49
2022-09-20T04:37:22.869Z,923.47
2022-09-20T04:38:22.344Z,923.43
2022-09-20T04:39:22.264Z,923.41
2022-09-20T04:40:22.341Z,923.39
2022-09-20T04:41:22.314Z,923.41
2022-09-20T04:42:22.504Z,923.43
2022-09-20T04:43:22.204Z,923.45
2022-09-20T04:44:22.172Z,923.46
2022-09-20T04:45:22.221Z,923.46
2022-09-20T04:46:22.767Z,923.46
2022-09-20T04:47:22.330Z,923.48
2022-09-20T04:48:22.312Z,923.50
2022-09-20T04:49:22.338Z,923.52
2022-09-20T04:50:22.230Z,923.55
2022-09-20T04:51:22.216Z,923.57
2022-09-20T04:52:22.950Z,923.59
2022-09-20T04:53:22.543Z,923.58
2022-09-20T04:54:22.173Z,923.57
2022-09-20T04:55:22.138Z,923.56
2022-09-20T04:56:22.259Z,923.56
2022-09-20T04:57:22.274Z,923.56
2022-09-20T04:58:22.022Z,923.54
2022-09-20T04:59:22.683Z,923.52
2022-09-20T05:00:22.176Z,923.51
2022-09-20T05:01:22.147Z,923.47
2022-09-20T05:02:23.478Z,923.43
2022-09-20T05:03:22.088Z,923.42
2022-09-20T05:04:22.981Z,923.44
2022-09-20T05:05:22.034Z,923.46
2022-09-20T05:06:22.858Z,923.47
2022-09-20T05:07:22.765Z,923.46
2022-09-20T05:08:23.901Z,923.46
2022-09-20T05:09:23.517Z,923.42
2022-09-20T05:10:22.256Z,923.37
2022-09-20T05:11:25.248Z,923.34
2022-09-20T05:12:22.605Z,923.32
2022-09-20T05:13:21.982Z,923.32
2022-09-20T05:14:22.678Z,923.30
2022-09-20T05:15:23.311Z,923.26
2022-09-20T05:16:22.843Z,923.22
2022-09-20T05:17:24.757Z,923.19
2022-09-20T05:18:22.819Z,923.18
2022-09-20T05:19:29.334Z,923.20
2022-09-20T05:20:22.006Z,923.23
2022-09-20T05:21:22.234Z,923.24
2022-09-20T05:22:21.735Z,923.23
2022-09-20T05:23:22.082Z,923.22
2022-09-20T05:24:23.397Z,923.24
2022-09-20T05:25:22.000Z,923.29
2022-09-20T05:26:22.618Z,923.35
2022-09-20T05:27:22.468Z,923.42
2022-09-20T05:28:21.919Z,923.45
2022-09-20T05:29:22.026Z,923.47
2022-09-20T05:30:21.927Z,923.53
2022-09-20T05:31:21.850Z,923.63
2022-09-20T05:32:21.735Z,923.75
2022-09-20T05:33:21.694Z,923.90
2022-09-20T05:34:21.951Z,924.13
2022-09-20T05:35:21.918Z,924.45
2022-09-20T05:36:21.712Z,924.90
2022-09-20T05:37:22.599Z,925.54
2022-09-20T05:38:21.699Z,926.21
2022-09-20T05:39:21.589Z,926.60
2022-09-20T05:40:21.633Z,926.77
2022-09-20T05:41:21.643Z,926.81
2022-09-20T05:42:21.603Z,926.68
2022-09-20T05:43:21.604Z,926.36
2022-09-20T05:44:22.456Z,925.82
2022-09-20T05:45:21.525Z,925.37
2022-09-20T05:46:21.530Z,925.64
2022-09-20T05:47:21.541Z,926.14
2022-09-20T05:48:21.542Z,926.53
2022-09-20T05:49:21.542Z,926.76
2022-09-20T05:50:21.554Z,926.82
2022-09-20T05:51:21.548Z,926.71
2022-09-20T05:52:21.459Z,926.58
2022-09-20T05:53:21.462Z,926.49
2022-09-20T05:54:21.473Z,926.45
2022-09-20T05:55:22.399Z,926.43
2022-09-20T05:56:21.380Z,926.43
2022-09-20T05:57:21.388Z,926.53
2022-09-20T05:58:21.501Z,926.62
2022-09-20T05:59:21.407Z,926.61
2022-09-20T06:00:21.420Z,926.53
2022-09-20T06:01:21.454Z,926.40
2022-09-20T06:02:21.523Z,926.29
2022-09-20T06:03:21.321Z,926.19
2022-09-20T06:04:21.339Z,926.10
2022-09-20T06:05:21.342Z,926.09
2022-09-20T06:06:21.347Z,926.11
2022-09-20T06:07:21.358Z,926.11
2022-09-20T06:08:21.266Z,926.17
2022-09-20T06:09:21.266Z,926.23
2022-09-20T06:10:21.279Z,926.29
2022-09-20T06:11:21.280Z,926.34
2022-09-20T06:12:21.281Z,926.34
2022-09-20T06:13:21.294Z,926.34
2022-09-20T06:14:21.612Z,926.34
2022-09-20T06:15:21.203Z,926.26
2022-09-20T06:16:21.263Z,926.15
2022-09-20T06:17:21.200Z,926.08
2022-09-20T06:18:21.208Z,926.09
2022-09-20T06:19:21.131Z,926.11
2022-09-20T06:20:21.129Z,926.13
2022-09-20T06:21:21.329Z,926.09
2022-09-20T06:22:21.140Z,926.02
2022-09-20T06:23:21.857Z,926.01
2022-09-20T06:24:21.170Z,926.02
2022-09-20T06:25:21.172Z,925.99
2022-09-20T06:26:21.067Z,925.90
2022-09-20T06:27:21.072Z,925.80
2022-09-20T06:28:21.075Z,925.71
2022-09-20T06:29:22.103Z,925.65
2022-09-20T06:30:21.128Z,925.60
2022-09-20T06:31:20.992Z,925.60
2022-09-20T06:32:21.026Z,925.59
2022-09-20T06:33:21.108Z,925.58
2022-09-20T06:34:21.007Z,925.59
2022-09-20T06:35:21.936Z,925.58
2022-09-20T06:36:21.037Z,925.55
2022-09-20T06:37:20.936Z,925.61
2022-09-20T06:38:20.938Z,925.56
2022-09-20T06:39:20.970Z,925.55
2022-09-20T06:40:20.954Z,925.55
2022-09-20T06:41:21.324Z,925.59
2022-09-20T06:42:23.330Z,925.66
2022-09-20T06:43:20.855Z,925.74
2022-09-20T06:44:20.878Z,925.79
2022-09-20T06:45:20.897Z,925.82
2022-09-20T06:46:20.876Z,925.86
2022-09-20T06:47:20.902Z,925.85
2022-09-20T06:48:20.814Z,925.87
2022-09-20T06:49:20.836Z,925.87
2022-09-20T06:50:20.808Z,925.87
2022-09-20T06:51:20.816Z,925.89
2022-09-20T06:52:21.653Z,925.92
2022-09-20T06:53:21.453Z,925.94
2022-09-20T06:54:20.756Z,925.95
2022-09-20T06:55:20.730Z,925.95
2022-09-20T06:56:20.750Z,925.92
2022-09-20T06:57:20.737Z,925.86
2022-09-20T06:58:20.749Z,925.81
2022-09-20T06:59:20.863Z,925.78
2022-09-20T07:00:20.654Z,925.78
2022-09-20T07:01:29.784Z,925.80
2022-09-20T07:02:20.796Z,925.80
2022-09-20T07:03:20.622Z,925.79
2022-09-20T07:04:20.624Z,925.76
2022-09-20T07:05:20.844Z,925.75
2022-09-20T07:06:20.697Z,925.78
2022-09-20T07:07:20.623Z,925.82
2022-09-20T07:08:20.554Z,925.82
2022-09-20T07:09:20.620Z,925.79
2022-09-20T07:10:20.623Z,925.76
2022-09-20T07:11:21.298Z,925.76
2022-09-20T07:12:20.564Z,925.80
2022-09-20T07:13:20.566Z,925.85
2022-09-20T07:14:20.490Z,925.90
2022-09-20T07:15:20.574Z,925.90
2022-09-20T07:16:20.599Z,925.87
2022-09-20T07:17:20.675Z,925.85
2022-09-20T07:18:20.483Z,925.86
2022-09-20T07:19:20.479Z,925.88
2022-09-20T07:20:21.468Z,925.87
2022-09-20T07:21:20.490Z,925.83
2022-09-20T07:22:20.727Z,925.74
2022-09-20T07:23:20.515Z,925.63
2022-09-20T07:24:20.440Z,925.55
2022-09-20T07:25:20.531Z,925.53
2022-09-20T07:26:20.446Z,925.58
2022-09-20T07:27:20.372Z,925.60
2022-09-20T07:28:20.456Z,925.59
2022-09-20T07:29:20.455Z,925.52
2022-09-20T07:30:20.394Z,925.41
2022-09-20T07:31:20.515Z,925.32
2022-09-20T07:32:20.367Z,925.26
2022-09-20T07:33:21.109Z,925.23
2022-09-20T07:34:20.412Z,925.25
2022-09-20T07:35:20.308Z,925.23
2022-09-20T07:36:20.316Z,925.25
2022-09-20T07:37:20.421Z,925.25
2022-09-20T07:38:20.308Z,925.29
2022-09-20T07:39:20.322Z,925.37
2022-09-20T07:40:20.409Z,925.44
2022-09-20T07:41:20.243Z,925.48
2022-09-20T07:42:20.231Z,925.48
2022-09-20T07:43:21.052Z,925.48
2022-09-20T07:44:20.180Z,925.47
2022-09-20T07:45:20.268Z,925.47
2022-09-20T07:46:20.281Z,925.51
2022-09-20T07:47:20.160Z,925.58
2022-09-20T07:48:20.182Z,925.64
2022-09-20T07:49:20.516Z,925.70
2022-09-20T07:50:20.190Z,925.71
2022-09-20T07:51:20.213Z,925.69
2022-09-20T07:52:20.192Z,925.61
2022-09-20T07:53:20.095Z,925.51
2022-09-20T07:54:20.547Z,925.42
2022-09-20T07:55:20.110Z,925.34
2022-09-20T07:56:20.145Z,925.28
2022-09-20T07:57:20.152Z,925.24
2022-09-20T07:58:20.133Z,925.22
2022-09-20T07:59:20.043Z,925.20
2022-09-20T08:00:20.167Z,925.18
2022-09-20T08:01:20.138Z,925.16
2022-09-20T08:02:20.650Z,925.14
2022-09-20T08:03:20.065Z,925.18
2022-09-20T08:04:20.066Z,925.20
2022-09-20T08:05:20.174Z,925.22
2022-09-20T08:06:19.976Z,925.21
2022-09-20T08:07:19.991Z,925.20
2022-09-20T08:08:19.928Z,925.24
2022-09-20T08:09:20.001Z,925.28
2022-09-20T08:10:20.034Z,925.29
2022-09-20T08:11:20.012Z,925.27
2022-09-20T08:14:20.332Z,925.31
2022-09-20T08:15:19.945Z,925.33
2022-09-20T08:16:19.997Z,925.34
2022-09-20T08:17:20.808Z,925.28
2022-09-20T08:18:19.987Z,925.19
2022-09-20T08:19:19.863Z,925.11
2022-09-20T08:20:20.020Z,925.08
2022-09-20T08:21:19.999Z,925.03
2022-09-20T08:22:19.910Z,924.98
2022-09-20T08:23:23.923Z,924.91
2022-09-20T08:24:19.816Z,924.82
2022-09-20T08:25:21.152Z,924.74
2022-09-20T08:26:19.831Z,924.69
2022-09-20T08:27:19.842Z,924.68
2022-09-20T08:28:20.453Z,924.65
2022-09-20T08:29:19.847Z,924.63
2022-09-20T08:30:21.601Z,924.63
2022-09-20T08:31:19.803Z,924.60
2022-09-20T08:32:19.765Z,924.61
2022-09-20T08:33:19.773Z,924.61
2022-09-20T08:34:19.883Z,924.61
2022-09-20T08:35:19.784Z,924.60
2022-09-20T08:36:20.405Z,924.53
2022-09-20T08:37:19.691Z,924.48
2022-09-20T08:40:19.788Z,924.35
2022-09-20T08:41:19.611Z,924.32
2022-09-20T08:42:19.628Z,924.25
2022-09-20T08:43:22.326Z,924.21
2022-09-20T08:44:19.576Z,924.14
2022-09-20T08:45:33.560Z,924.13
2022-09-20T08:46:23.318Z,924.11
2022-09-20T08:47:19.495Z,924.15
2022-09-20T08:48:19.556Z,924.19
2022-09-20T08:49:19.509Z,924.06
2022-09-20T08:50:20.101Z,924.05
2022-09-20T08:51:22.895Z,924.01
2022-09-20T08:52:19.430Z,923.93
2022-09-20T08:53:21.451Z,923.88
2022-09-20T08:54:20.363Z,923.81
2022-09-20T08:55:19.457Z,923.83
2022-09-20T08:56:19.514Z,923.80
2022-09-20T08:57:19.416Z,923.85
2022-09-20T08:58:19.427Z,923.81
2022-09-20T08:59:19.373Z,923.79
2022-09-20T09:00:19.661Z,923.81
2022-09-20T09:01:19.328Z,923.81
2022-09-20T09:02:19.522Z,923.82
2022-09-20T09:03:19.406Z,923.70
2022-09-20T09:04:19.706Z,923.57
2022-09-20T09:05:19.365Z,923.47
2022-09-20T09:06:19.274Z,923.43
2022-09-20T09:07:19.280Z,923.44
2022-09-20T09:08:19.234Z,923.39
2022-09-20T09:09:20.116Z,923.34
2022-09-20T09:10:19.235Z,923.29
2022-09-20T09:11:19.256Z,923.24
2022-09-20T09:12:19.211Z,923.23
2022-09-20T09:13:20.600Z,923.32
2022-09-20T09:14:19.223Z,923.31
2022-09-20T09:15:20.046Z,923.37
2022-09-20T09:16:23.968Z,923.44
2022-09-20T09:17:19.193Z,923.59
2022-09-20T09:18:19.192Z,923.63
2022-09-20T09:19:19.094Z,923.71
2022-09-20T09:20:19.110Z,923.72
2022-09-20T09:21:19.109Z,923.79
2022-09-20T09:22:19.177Z,923.79
2022-09-20T09:23:19.243Z,923.81
2022-09-20T09:24:19.545Z,923.82
2022-09-20T09:25:19.138Z,923.87
2022-09-20T09:26:19.132Z,923.93
2022-09-20T09:27:19.127Z,923.97
2022-09-20T09:28:19.063Z,924.03
2022-09-20T09:29:19.056Z,924.08
2022-09-20T09:30:19.064Z,924.09
2022-09-20T09:31:19.124Z,924.10
2022-09-20T09:32:19.703Z,924.11
2022-09-20T09:33:19.094Z,924.14
2022-09-20T09:34:18.996Z,924.14
2022-09-20T09:35:18.985Z,924.16
2022-09-20T09:36:19.102Z,924.24
2022-09-20T09:37:19.002Z,924.29
2022-09-20T09:38:19.023Z,924.31
2022-09-20T09:39:19.024Z,924.34
2022-09-20T09:40:19.090Z,924.38
2022-09-20T09:41:19.137Z,924.39
2022-09-20T09:42:18.955Z,924.39
2022-09-20T09:43:18.941Z,924.38
2022-09-20T09:44:19.048Z,924.42
2022-09-20T09:45:18.852Z,924.41
2022-09-20T09:46:19.707Z,924.43
2022-09-20T09:47:18.866Z,924.40
2022-09-20T09:48:18.871Z,924.45
2022-09-20T09:49:18.883Z,924.47
2022-09-20T09:50:18.878Z,924.47
2022-09-20T09:51:18.888Z,924.44
2022-09-20T09:52:18.791Z,924.43
2022-09-20T09:53:18.795Z,924.39
2022-09-20T09:54:18.813Z,924.35
2022-09-20T09:55:18.814Z,924.33
2022-09-20T09:56:18.817Z,924.31
2022-09-20T09:57:18.730Z,924.27
2022-09-20T09:58:18.733Z,924.23
2022-09-20T09:59:18.847Z,924.24
2022-09-20T10:00:21.825Z,924.25
2022-09-20T10:01:18.792Z,924.23
2022-09-20T10:02:18.806Z,924.24
2022-09-20T10:03:18.665Z,924.25
2022-09-20T10:04:18.668Z,924.27
2022-09-20T10:05:18.812Z,924.29
2022-09-20T10:06:18.690Z,924.31
2022-09-20T10:07:18.686Z,924.33
2022-09-20T10:08:19.431Z,924.34
2022-09-20T10:09:18.729Z,924.34
2022-09-20T10:10:18.613Z,924.34
2022-09-20T10:11:18.713Z,924.34
2022-09-20T10:12:18.722Z,924.36
2022-09-20T10:13:18.645Z,924.38
2022-09-20T10:14:18.643Z,924.36
2022-09-20T10:15:18.647Z,924.38
2022-09-20T10:16:18.586Z,924.37
2022-09-20T10:17:18.545Z,924.38
2022-09-20T10:18:18.660Z,924.39
2022-09-20T10:19:22.708Z,924.39
2022-09-20T10:20:18.496Z,924.39
2022-09-20T10:21:18.615Z,924.41
2022-09-20T10:22:18.508Z,924.43
2022-09-20T10:24:18.507Z,924.45
2022-09-20T10:25:18.700Z,924.46
2022-09-20T10:26:18.424Z,924.49
2022-09-20T10:27:18.518Z,924.50
2022-09-20T10:28:18.429Z,924.52
2022-09-20T10:29:18.659Z,924.53
2022-09-20T10:30:18.439Z,924.57
2022-09-20T10:31:21.194Z,924.60
2022-09-20T10:32:18.363Z,924.64
2022-09-20T10:33:18.455Z,924.66
2022-09-20T10:34:18.397Z,924.66
2022-09-20T10:35:18.388Z,924.69
2022-09-20T10:36:18.390Z,924.71
2022-09-20T10:37:18.314Z,924.72
2022-09-20T10:38:18.285Z,924.73
2022-09-20T10:39:18.227Z,924.75
2022-09-20T10:40:18.335Z,924.77
2022-09-20T10:41:18.244Z,924.81
2022-09-20T10:42:18.960Z,924.84
2022-09-20T10:43:18.236Z,924.88
2022-09-20T10:44:18.216Z,924.94
2022-09-20T10:45:44.097Z,925.02
2022-09-20T10:46:31.863Z,925.06
2022-09-20T10:47:18.292Z,925.07
2022-09-20T10:48:18.247Z,925.09
2022-09-20T10:49:18.147Z,925.13
2022-09-20T10:50:18.160Z,925.15
2022-09-20T10:51:18.489Z,925.16
2022-09-20T10:52:18.184Z,925.17
2022-09-20T10:53:18.203Z,925.19
2022-09-20T10:54:18.204Z,925.18
2022-09-20T10:55:18.024Z,925.16
2022-09-20T10:56:18.111Z,925.17
2022-09-20T10:57:18.143Z,925.18
2022-09-20T10:58:18.121Z,925.17
2022-09-20T10:59:18.127Z,925.14
2022-09-20T11:00:18.033Z,925.13
2022-09-20T11:01:18.108Z,925.14
2022-09-20T11:02:18.119Z,925.13
2022-09-20T11:03:18.665Z,925.11
2022-09-20T11:04:18.275Z,925.09
2022-09-20T11:05:18.077Z,925.09
2022-09-20T11:06:17.973Z,925.12
2022-09-20T11:07:18.697Z,925.15
2022-09-20T11:08:17.985Z,925.16
2022-09-20T11:09:17.992Z,925.16
2022-09-20T11:10:18.090Z,925.17
2022-09-20T11:11:20.456Z,925.21
2022-09-20T11:12:18.006Z,925.23
2022-09-20T11:13:17.914Z,925.25
2022-09-20T11:14:17.917Z,925.28
2022-09-20T11:15:17.922Z,925.35
2022-09-20T11:16:18.706Z,925.40
2022-09-20T11:17:18.054Z,925.42
2022-09-20T11:18:17.840Z,925.45
2022-09-20T11:19:17.852Z,925.46
2022-09-20T11:20:17.856Z,925.48
2022-09-20T11:21:17.857Z,925.48
2022-09-20T11:22:17.865Z,925.48
2022-09-20T11:23:18.283Z,925.47
2022-09-20T11:24:17.776Z,925.46
2022-09-20T11:25:20.959Z,925.49
2022-09-20T11:26:17.785Z,925.50
2022-09-20T11:27:17.802Z,925.50
2022-09-20T11:28:17.812Z,925.49
2022-09-20T11:29:17.807Z,925.49
2022-09-20T11:30:17.822Z,925.50
2022-09-20T11:31:17.833Z,925.51
2022-09-20T11:32:18.046Z,925.53
2022-09-20T11:33:17.733Z,925.55
2022-09-20T11:34:17.746Z,925.55
2022-09-20T11:35:17.985Z,925.56
2022-09-20T11:36:17.674Z,925.54
2022-09-20T11:37:17.660Z,925.54
2022-09-20T11:38:17.663Z,925.55
2022-09-20T11:39:17.776Z,925.56
2022-09-20T11:40:17.715Z,925.57
2022-09-20T11:41:17.630Z,925.56
2022-09-20T11:42:17.697Z,925.55
2022-09-20T11:43:17.705Z,925.54
2022-09-20T11:44:17.612Z,925.56
2022-09-20T11:45:17.823Z,925.56
2022-09-20T11:46:17.645Z,925.56
2022-09-20T11:47:31.469Z,925.57
2022-09-20T11:48:17.675Z,925.56
2022-09-20T11:49:17.541Z,925.56
2022-09-20T11:50:17.540Z,925.55
2022-09-20T11:51:17.495Z,925.54
2022-09-20T11:52:17.809Z,925.54
2022-09-20T11:53:17.568Z,925.53
2022-09-20T11:54:17.517Z,925.52
2022-09-20T11:55:17.484Z,925.51
2022-09-20T11:56:17.656Z,925.52
2022-09-20T11:57:17.485Z,925.51
2022-09-20T11:58:17.405Z,925.50
2022-09-20T11:59:20.544Z,925.54
2022-09-20T12:00:17.548Z,925.53
2022-09-20T12:01:17.622Z,925.51
2022-09-20T12:02:17.521Z,925.53
2022-09-20T12:03:17.623Z,925.53
2022-09-20T12:04:34.028Z,925.53
2022-09-20T12:05:17.384Z,925.53
2022-09-20T12:06:17.934Z,925.54
2022-09-20T12:07:18.217Z,925.56
2022-09-20T12:08:17.296Z,925.57
2022-09-20T12:09:17.270Z,925.59
2022-09-20T12:10:17.310Z,925.60
2022-09-20T12:11:17.488Z,925.61
2022-09-20T12:12:17.224Z,925.63
2022-09-20T12:13:17.232Z,925.65
2022-09-20T12:14:17.232Z,925.68
2022-09-20T12:15:17.380Z,925.70
2022-09-20T12:16:17.255Z,925.74
2022-09-20T12:17:17.256Z,925.75
2022-09-20T12:18:17.225Z,925.76
2022-09-20T12:19:17.166Z,925.77
2022-09-20T12:20:19.280Z,925.79
2022-09-20T12:21:17.377Z,925.80
2022-09-20T12:22:17.180Z,925.81
2022-09-20T12:23:17.284Z,925.82
2022-09-20T12:24:17.166Z,925.81
2022-09-20T12:25:17.167Z,925.79
2022-09-20T12:26:17.202Z,925.78
2022-09-20T12:27:17.118Z,925.77
2022-09-20T12:28:17.115Z,925.77
2022-09-20T12:29:17.276Z,925.76
2022-09-20T12:30:17.717Z,925.75
2022-09-20T12:31:17.300Z,925.73
2022-09-20T12:32:18.240Z,925.71
2022-09-20T12:33:17.145Z,925.69